Time;durP1;ratioP1;P1;durP2;ratioP2;P2;SDS_P1;SDS_P2;PMS_P1;PMS_P2;Temp;Humidity;BMP_temperature;BMP_pressure;BME280_temperature;BME280_humidity;BME280_pressure;Samples;Min_cycle;Max_cycle;Signal;HPM_P1;HPM_P2
2022/12/12 00:00:43;;;;;;;26.27;16.33;;;;;;;;;;5093672;28;20023;-75
2022/12/12 00:03:29;;;;;;;27.45;15.70;;;;;;;;;;5094260;28;20027;-75
2022/12/12 00:06:14;;;;;;;24.98;14.77;;;;;;;;;;5094645;28;20073;-75
2022/12/12 00:09:00;;;;;;;27.92;15.80;;;;;;;;;;5094590;28;20365;-75
2022/12/12 00:11:46;;;;;;;27.55;15.00;;;;;;;;;;5093738;28;20024;-74
2022/12/12 00:14:31;;;;;;;25.15;15.23;;;;;;;;;;5093812;28;20016;-75
2022/12/12 00:17:17;;;;;;;26.05;14.93;;;;;;;;;;5094777;28;20040;-74
2022/12/12 00:20:03;;;;;;;24.33;14.68;;;;;;;;;;5093989;28;20026;-75
2022/12/12 00:22:49;;;;;;;28.30;16.02;;;;;;;;;;5094522;28;20335;-74
2022/12/12 00:25:34;;;;;;;26.10;15.02;;;;;;;;;;5094025;28;20068;-74
2022/12/12 00:28:20;;;;;;;26.08;14.98;;;;;;;;;;5093636;28;20078;-74
2022/12/12 00:31:05;;;;;;;24.25;15.05;;;;;;;;;;5093992;28;20031;-75
2022/12/12 00:33:51;;;;;;;24.42;14.82;;;;;;;;;;5093715;28;20055;-74
2022/12/12 00:36:36;;;;;;;29.50;15.70;;;;;;;;;;5079864;28;20028;-74
2022/12/12 00:39:22;;;;;;;28.67;16.23;;;;;;;;;;5078500;28;20016;-74
2022/12/12 00:42:08;;;;;;;26.70;15.65;;;;;;;;;;5093210;28;20043;-76
2022/12/12 00:44:53;;;;;;;24.60;15.32;;;;;;;;;;5093793;28;20030;-75
2022/12/12 00:47:39;;;;;;;26.00;15.10;;;;;;;;;;5093377;28;20027;-75
2022/12/12 00:50:25;;;;;;;28.52;15.70;;;;;;;;;;5093190;28;20016;-75
2022/12/12 00:53:12;;;;;;;26.63;15.77;;;;;;;;;;5094305;28;20012;-74
2022/12/12 00:55:58;;;;;;;28.15;16.65;;;;;;;;;;5094113;28;20048;-74
2022/12/12 00:58:43;;;;;;;25.15;15.57;;;;;;;;;;5093202;28;20066;-75
2022/12/12 01:01:30;;;;;;;27.20;15.60;;;;;;;;;;5078562;28;20040;-74
2022/12/12 01:04:15;;;;;;;27.27;15.57;;;;;;;;;;5092578;28;20122;-75
2022/12/12 01:07:01;;;;;;;23.73;15.40;;;;;;;;;;5092282;28;20035;-74
2022/12/12 01:09:46;;;;;;;27.02;15.18;;;;;;;;;;5093047;28;20077;-75
2022/12/12 01:12:32;;;;;;;28.00;15.52;;;;;;;;;;5092669;28;20040;-75
2022/12/12 01:15:17;;;;;;;27.15;15.75;;;;;;;;;;5092301;28;20016;-75
2022/12/12 01:18:03;;;;;;;27.48;15.60;;;;;;;;;;5093855;28;20462;-76
2022/12/12 01:20:49;;;;;;;25.35;15.23;;;;;;;;;;5092318;28;20024;-75
2022/12/12 01:23:34;;;;;;;24.65;14.75;;;;;;;;;;5092356;28;20081;-75
2022/12/12 01:26:22;;;;;;;27.30;15.35;;;;;;;;;;5092364;28;20016;-75
2022/12/12 01:29:07;;;;;;;26.35;15.27;;;;;;;;;;5092912;28;20035;-74
2022/12/12 01:31:53;;;;;;;26.33;15.77;;;;;;;;;;5092112;28;20442;-76
2022/12/12 01:34:39;;;;;;;25.13;15.05;;;;;;;;;;5092146;28;20027;-75
2022/12/12 01:37:24;;;;;;;25.70;14.75;;;;;;;;;;5092328;28;20016;-76
2022/12/12 01:40:13;;;;;;;26.40;15.45;;;;;;;;;;5092383;28;20099;-75
2022/12/12 01:42:59;;;;;;;25.10;15.30;;;;;;;;;;5093222;28;20016;-75
2022/12/12 01:45:57;;;;;;;28.70;16.02;;;;;;;;;;5092822;28;20078;-75
2022/12/12 01:48:45;;;;;;;26.15;15.23;;;;;;;;;;5078634;28;20107;-75
2022/12/12 01:51:31;;;;;;;25.88;15.27;;;;;;;;;;5092527;28;20028;-74
2022/12/12 01:54:20;;;;;;;26.08;15.55;;;;;;;;;;5078018;28;20074;-75
2022/12/12 01:57:08;;;;;;;26.95;15.52;;;;;;;;;;5092215;28;20435;-74
2022/12/12 01:59:54;;;;;;;26.13;15.65;;;;;;;;;;5091925;28;20020;-75
2022/12/12 02:02:41;;;;;;;23.83;14.80;;;;;;;;;;5076481;28;20048;-75
2022/12/12 02:05:38;;;;;;;24.98;14.98;;;;;;;;;;5092642;28;20503;-75
2022/12/12 02:08:24;;;;;;;28.77;16.17;;;;;;;;;;5092450;28;20103;-75
2022/12/12 02:11:09;;;;;;;27.95;16.08;;;;;;;;;;5078009;28;20062;-75
2022/12/12 02:13:56;;;;;;;28.55;15.90;;;;;;;;;;5092073;28;20020;-75
2022/12/12 02:17:00;;;;;;;29.73;16.73;;;;;;;;;;5093012;28;20016;-75
2022/12/12 02:19:45;;;;;;;28.38;16.30;;;;;;;;;;5093052;28;20008;-74
2022/12/12 02:22:31;;;;;;;27.40;15.55;;;;;;;;;;5098836;28;20046;-76
2022/12/12 02:25:29;;;;;;;30.38;16.73;;;;;;;;;;5095137;28;20020;-75
2022/12/12 02:28:14;;;;;;;27.95;15.75;;;;;;;;;;5106897;28;20444;-74
2022/12/12 02:31:03;;;;;;;27.27;15.07;;;;;;;;;;5095690;28;20087;-74
2022/12/12 02:34:01;;;;;;;27.70;16.55;;;;;;;;;;5098092;28;20034;-74
2022/12/12 02:36:52;;;;;;;26.15;15.23;;;;;;;;;;5091086;28;20012;-74
2022/12/12 02:40:00;;;;;;;28.80;16.05;;;;;;;;;;5108323;28;20012;-74
2022/12/12 02:42:53;;;;;;;26.27;14.35;;;;;;;;;;5109005;28;20416;-74
2022/12/12 02:45:42;;;;;;;25.17;14.55;;;;;;;;;;5098835;28;20016;-75
2022/12/12 02:48:47;;;;;;;25.00;14.32;;;;;;;;;;5092591;28;20076;-75
2022/12/12 02:51:33;;;;;;;24.33;14.40;;;;;;;;;;5109672;28;20033;-75
2022/12/12 02:54:20;;;;;;;26.30;14.75;;;;;;;;;;5103522;28;20049;-73
2022/12/12 02:57:16;;;;;;;25.83;15.02;;;;;;;;;;5085498;28;20023;-75
2022/12/12 03:00:07;;;;;;;25.88;14.70;;;;;;;;;;5095996;28;20031;-74
2022/12/12 03:09:13;;;;;;;27.05;15.05;;;;;;;;;;5105473;28;20095;-74
2022/12/12 03:12:07;;;;;;;25.75;15.23;;;;;;;;;;5100498;28;20110;-74
2022/12/12 03:14:56;;;;;;;24.38;15.02;;;;;;;;;;5095952;28;20028;-74
2022/12/12 03:17:45;;;;;;;27.02;15.38;;;;;;;;;;5081391;28;20030;-74
2022/12/12 03:20:41;;;;;;;27.30;15.60;;;;;;;;;;5080833;28;20013;-75
2022/12/12 03:23:30;;;;;;;26.98;14.68;;;;;;;;;;5081219;28;20471;-74
2022/12/12 03:26:20;;;;;;;26.98;15.38;;;;;;;;;;5080755;28;20110;-74
2022/12/12 03:29:11;;;;;;;24.45;14.65;;;;;;;;;;5094614;28;20044;-74
2022/12/12 03:32:00;;;;;;;25.33;14.82;;;;;;;;;;5080749;28;20039;-74
2022/12/12 03:34:48;;;;;;;24.58;14.68;;;;;;;;;;5095805;28;20446;-74
2022/12/12 03:37:36;;;;;;;25.33;14.70;;;;;;;;;;5096403;28;20343;-74
2022/12/12 03:40:28;;;;;;;24.52;14.65;;;;;;;;;;5094706;28;20428;-75
2022/12/12 03:43:17;;;;;;;26.10;14.90;;;;;;;;;;5080598;28;20350;-75
2022/12/12 03:46:38;;;;;;;25.73;15.10;;;;;;;;;;5095042;28;20051;-75
2022/12/12 03:49:32;;;;;;;26.10;14.88;;;;;;;;;;4993940;28;20176;-75
2022/12/12 03:52:21;;;;;;;24.23;14.20;;;;;;;;;;5094723;28;20074;-75
2022/12/12 03:55:12;;;;;;;23.73;13.82;;;;;;;;;;5094556;28;20024;-74
2022/12/12 03:58:00;;;;;;;25.23;14.70;;;;;;;;;;5094806;28;20085;-75
2022/12/12 04:00:47;;;;;;;24.83;14.68;;;;;;;;;;5094276;28;20043;-74
2022/12/12 04:03:37;;;;;;;26.42;14.45;;;;;;;;;;5100012;28;20111;-74
2022/12/12 04:06:34;;;;;;;24.13;14.48;;;;;;;;;;5085416;28;20106;-75
2022/12/12 04:15:34;;;;;;;26.38;14.48;;;;;;;;;;5094416;28;20026;-74
2022/12/12 04:18:24;;;;;;;26.02;14.43;;;;;;;;;;5093151;28;20016;-74
2022/12/12 04:24:16;;;;;;;29.58;15.23;;;;;;;;;;5093494;28;20070;-75
2022/12/12 04:27:12;;;;;;;25.88;14.65;;;;;;;;;;5093369;28;20020;-74
2022/12/12 04:30:04;;;;;;;24.95;14.30;;;;;;;;;;5079747;28;20039;-74
2022/12/12 04:33:03;;;;;;;25.90;14.48;;;;;;;;;;5093531;28;20035;-75
2022/12/12 04:35:49;;;;;;;24.95;14.32;;;;;;;;;;5093121;28;20077;-74
2022/12/12 04:38:35;;;;;;;22.75;13.73;;;;;;;;;;5079092;28;20016;-74
2022/12/12 04:41:21;;;;;;;22.67;13.38;;;;;;;;;;5079059;28;20027;-75
2022/12/12 04:44:08;;;;;;;22.48;13.25;;;;;;;;;;5093058;28;20024;-75
2022/12/12 04:46:55;;;;;;;23.60;13.55;;;;;;;;;;5079439;28;20020;-74
2022/12/12 04:49:42;;;;;;;23.10;14.40;;;;;;;;;;5092868;28;20030;-75
2022/12/12 04:52:30;;;;;;;25.45;14.30;;;;;;;;;;5092498;28;20023;-74
2022/12/12 04:55:25;;;;;;;24.02;14.05;;;;;;;;;;5093859;28;20122;-74
2022/12/12 04:58:10;;;;;;;22.33;13.50;;;;;;;;;;5092402;28;20077;-74
2022/12/12 05:00:58;;;;;;;22.13;13.13;;;;;;;;;;5092530;28;20454;-75
2022/12/12 05:03:54;;;;;;;22.20;12.93;;;;;;;;;;5093231;28;20055;-73
2022/12/12 05:06:49;;;;;;;23.45;13.35;;;;;;;;;;5092940;28;20020;-74
2022/12/12 05:09:35;;;;;;;22.83;13.63;;;;;;;;;;5093287;28;20107;-75
2022/12/12 05:12:21;;;;;;;22.67;13.10;;;;;;;;;;5093938;28;20438;-73
2022/12/12 05:15:06;;;;;;;25.23;13.52;;;;;;;;;;5093169;28;20422;-73
2022/12/12 05:17:57;;;;;;;23.92;14.02;;;;;;;;;;5093148;28;20468;-73
2022/12/12 05:20:43;;;;;;;24.05;13.82;;;;;;;;;;5079367;28;20035;-74
2022/12/12 05:23:28;;;;;;;22.02;12.98;;;;;;;;;;5092799;28;20052;-73
2022/12/12 05:26:34;;;;;;;24.15;14.00;;;;;;;;;;5093234;28;20035;-73
2022/12/12 05:29:19;;;;;;;24.33;14.40;;;;;;;;;;5093349;28;20024;-74
2022/12/12 05:32:05;;;;;;;25.15;14.02;;;;;;;;;;5093332;28;20035;-74
2022/12/12 05:34:51;;;;;;;24.20;14.32;;;;;;;;;;5077725;28;20089;-74
2022/12/12 05:37:36;;;;;;;22.65;13.30;;;;;;;;;;5092466;28;20027;-73
2022/12/12 05:40:22;;;;;;;22.63;13.20;;;;;;;;;;5093220;28;20020;-74
2022/12/12 05:43:08;;;;;;;23.45;14.30;;;;;;;;;;5078216;28;20358;-74
2022/12/12 05:45:53;;;;;;;23.63;13.65;;;;;;;;;;5078600;28;20111;-74
2022/12/12 05:48:39;;;;;;;24.15;12.63;;;;;;;;;;5078619;28;20017;-74
2022/12/12 05:51:24;;;;;;;22.02;13.43;;;;;;;;;;5093638;28;20373;-75
2022/12/12 05:54:10;;;;;;;24.33;14.15;;;;;;;;;;5077758;28;20028;-75
2022/12/12 05:56:56;;;;;;;23.33;14.00;;;;;;;;;;5093084;28;20411;-75
2022/12/12 05:59:42;;;;;;;22.10;13.45;;;;;;;;;;5092662;28;20403;-74
2022/12/12 06:02:27;;;;;;;24.48;13.98;;;;;;;;;;5094186;28;20063;-74
2022/12/12 06:05:13;;;;;;;23.73;12.75;;;;;;;;;;5081631;28;20107;-75
2022/12/12 06:07:58;;;;;;;23.73;13.95;;;;;;;;;;5081631;28;20028;-73
2022/12/12 06:10:44;;;;;;;27.52;13.65;;;;;;;;;;5096329;28;20095;-74
2022/12/12 06:13:30;;;;;;;25.08;14.70;;;;;;;;;;5081958;28;20074;-74
2022/12/12 06:16:17;;;;;;;26.40;14.85;;;;;;;;;;5096508;28;20433;-74
2022/12/12 06:19:03;;;;;;;21.17;12.88;;;;;;;;;;5096630;28;20024;-74
2022/12/12 06:21:48;;;;;;;22.08;12.68;;;;;;;;;;5096373;28;20077;-74
2022/12/12 06:24:34;;;;;;;20.67;11.65;;;;;;;;;;5081861;28;20066;-78
2022/12/12 06:27:19;;;;;;;20.27;12.55;;;;;;;;;;5096110;28;20020;-75
2022/12/12 06:30:05;;;;;;;23.20;13.70;;;;;;;;;;5095970;28;20035;-74
2022/12/12 06:32:51;;;;;;;26.08;14.93;;;;;;;;;;5095732;28;20085;-73
2022/12/12 06:35:37;;;;;;;25.95;14.93;;;;;;;;;;5096312;28;20081;-73
2022/12/12 06:38:22;;;;;;;29.80;16.35;;;;;;;;;;5096262;28;20095;-76
2022/12/12 06:41:12;;;;;;;30.20;16.75;;;;;;;;;;5095798;28;20016;-74
2022/12/12 06:43:58;;;;;;;27.15;15.73;;;;;;;;;;5096021;28;20032;-74
2022/12/12 06:46:43;;;;;;;23.60;14.20;;;;;;;;;;5095894;28;20016;-74
2022/12/12 06:49:29;;;;;;;24.92;15.32;;;;;;;;;;5095872;28;20331;-74
2022/12/12 06:52:15;;;;;;;29.17;17.30;;;;;;;;;;5095763;28;20028;-73
2022/12/12 06:55:00;;;;;;;32.10;18.75;;;;;;;;;;5096091;28;20346;-74
2022/12/12 06:57:46;;;;;;;31.13;18.23;;;;;;;;;;5095473;28;20016;-75
2022/12/12 07:00:31;;;;;;;29.33;17.77;;;;;;;;;;5095789;28;20031;-74
2022/12/12 07:03:17;;;;;;;29.92;17.90;;;;;;;;;;5095649;28;20196;-74
2022/12/12 07:06:03;;;;;;;29.95;18.00;;;;;;;;;;5096640;28;20357;-73
2022/12/12 07:08:50;;;;;;;33.15;18.88;;;;;;;;;;5094987;28;20050;-74
2022/12/12 07:11:35;;;;;;;31.33;18.80;;;;;;;;;;5095733;28;20032;-73
2022/12/12 07:14:21;;;;;;;32.55;18.17;;;;;;;;;;5094165;28;20028;-73
2022/12/12 07:17:06;;;;;;;27.60;16.10;;;;;;;;;;5080147;28;20408;-75
2022/12/12 07:19:52;;;;;;;23.95;13.77;;;;;;;;;;5095073;28;20034;-74
2022/12/12 07:22:37;;;;;;;22.80;13.02;;;;;;;;;;5080930;28;20031;-75
2022/12/12 07:25:23;;;;;;;19.50;12.38;;;;;;;;;;5081391;28;20027;-74
2022/12/12 07:28:10;;;;;;;23.15;13.23;;;;;;;;;;5095117;28;20095;-75
2022/12/12 07:30:55;;;;;;;23.00;13.70;;;;;;;;;;5095537;28;20465;-75
2022/12/12 07:33:41;;;;;;;24.75;13.88;;;;;;;;;;5094898;28;20020;-74
2022/12/12 07:36:27;;;;;;;19.48;11.85;;;;;;;;;;5095298;28;20024;-74
2022/12/12 07:39:12;;;;;;;19.00;12.15;;;;;;;;;;5080617;28;20158;-74
2022/12/12 07:41:58;;;;;;;17.50;11.10;;;;;;;;;;5080694;28;20452;-75
2022/12/12 07:44:44;;;;;;;20.15;11.88;;;;;;;;;;5095218;28;20112;-75
2022/12/12 07:47:29;;;;;;;16.33;10.63;;;;;;;;;;5095179;28;20032;-74
2022/12/12 07:50:15;;;;;;;17.60;10.80;;;;;;;;;;5095468;28;20020;-74
2022/12/12 07:53:01;;;;;;;17.85;10.55;;;;;;;;;;5095353;28;20024;-74
2022/12/12 07:55:46;;;;;;;17.92;10.23;;;;;;;;;;5080035;28;20402;-74
2022/12/12 07:58:32;;;;;;;16.77;10.73;;;;;;;;;;5096065;28;20028;-72
2022/12/12 08:01:19;;;;;;;16.98;10.13;;;;;;;;;;5081341;28;20118;-74
2022/12/12 08:04:05;;;;;;;18.02;10.48;;;;;;;;;;5081663;28;20083;-74
2022/12/12 08:06:50;;;;;;;18.83;10.98;;;;;;;;;;5098440;28;20105;-74
2022/12/12 08:09:36;;;;;;;17.58;11.18;;;;;;;;;;5094838;28;20020;-74
2022/12/12 08:12:22;;;;;;;20.10;11.05;;;;;;;;;;5094141;28;20027;-74
2022/12/12 08:15:10;;;;;;;18.13;10.93;;;;;;;;;;5096187;28;20024;-74
2022/12/12 08:17:56;;;;;;;18.30;11.05;;;;;;;;;;5084396;28;20019;-73
2022/12/12 08:20:41;;;;;;;18.73;11.18;;;;;;;;;;5082313;28;20016;-74
2022/12/12 08:23:27;;;;;;;17.40;10.52;;;;;;;;;;5096048;28;20450;-74
2022/12/12 08:26:15;;;;;;;18.08;11.02;;;;;;;;;;5094547;28;20062;-74
2022/12/12 08:29:01;;;;;;;19.92;12.23;;;;;;;;;;5081720;28;20020;-73
2022/12/12 08:31:46;;;;;;;21.00;12.35;;;;;;;;;;5099170;28;20023;-73
2022/12/12 08:34:32;;;;;;;21.30;11.93;;;;;;;;;;5110744;28;20012;-74
2022/12/12 08:37:17;;;;;;;20.05;11.80;;;;;;;;;;5088087;28;20042;-72
2022/12/12 08:40:03;;;;;;;21.52;12.48;;;;;;;;;;5094474;28;20024;-73
2022/12/12 08:42:49;;;;;;;20.60;12.00;;;;;;;;;;5079926;28;20318;-74
2022/12/12 08:45:38;;;;;;;23.08;12.38;;;;;;;;;;5093015;28;20020;-74
2022/12/12 08:48:24;;;;;;;23.90;13.48;;;;;;;;;;5093743;28;20448;-74
2022/12/12 08:51:09;;;;;;;22.77;12.57;;;;;;;;;;5079051;28;20020;-74
2022/12/12 08:53:55;;;;;;;22.70;12.95;;;;;;;;;;5079313;28;20453;-74
2022/12/12 08:56:41;;;;;;;20.73;12.93;;;;;;;;;;5079794;28;20020;-76
2022/12/12 08:59:26;;;;;;;25.13;13.27;;;;;;;;;;5093118;28;20055;-74
2022/12/12 09:02:12;;;;;;;20.08;12.40;;;;;;;;;;5092182;28;20135;-74
2022/12/12 09:04:57;;;;;;;21.08;12.27;;;;;;;;;;5093856;28;20510;-74
2022/12/12 09:07:44;;;;;;;21.40;12.18;;;;;;;;;;5093525;28;20484;-74
2022/12/12 09:10:30;;;;;;;20.25;11.80;;;;;;;;;;5078434;28;20044;-75
2022/12/12 09:13:16;;;;;;;21.08;12.32;;;;;;;;;;5092771;28;20027;-75
2022/12/12 09:16:01;;;;;;;21.60;13.10;;;;;;;;;;5094057;28;20016;-74
2022/12/12 09:18:47;;;;;;;24.90;13.60;;;;;;;;;;5093955;28;20087;-74
2022/12/12 09:21:33;;;;;;;21.33;12.85;;;;;;;;;;5093140;28;20035;-73
2022/12/12 09:24:19;;;;;;;20.38;11.93;;;;;;;;;;5079139;28;20051;-74
2022/12/12 09:27:04;;;;;;;24.40;13.75;;;;;;;;;;5093554;28;20024;-73
2022/12/12 09:29:50;;;;;;;25.42;13.88;;;;;;;;;;5092978;28;20035;-74
2022/12/12 09:32:36;;;;;;;22.00;12.55;;;;;;;;;;5092751;28;20425;-74
2022/12/12 09:35:22;;;;;;;23.75;13.20;;;;;;;;;;5093986;28;20036;-74
2022/12/12 09:38:08;;;;;;;22.77;13.25;;;;;;;;;;5095884;28;20047;-73
2022/12/12 09:40:55;;;;;;;20.88;13.30;;;;;;;;;;5098178;28;20016;-74
2022/12/12 09:43:44;;;;;;;23.17;12.95;;;;;;;;;;5098744;28;20028;-73
2022/12/12 09:46:33;;;;;;;29.02;16.73;;;;;;;;;;5099120;28;20451;-74
2022/12/12 09:49:30;;;;;;;48.85;21.88;;;;;;;;;;5099277;28;20028;-73
2022/12/12 09:52:27;;;;;;;28.63;14.70;;;;;;;;;;5098639;28;20035;-75
2022/12/12 09:55:19;;;;;;;23.75;13.50;;;;;;;;;;5100158;28;20141;-74
2022/12/12 09:58:16;;;;;;;24.73;13.00;;;;;;;;;;5097494;28;20048;-74
2022/12/12 10:01:15;;;;;;;26.65;14.75;;;;;;;;;;5085031;28;20093;-73
2022/12/12 10:04:09;;;;;;;21.40;12.63;;;;;;;;;;5098612;28;20110;-73
2022/12/12 10:07:12;;;;;;;23.08;13.35;;;;;;;;;;5082168;28;20024;-73
2022/12/12 10:10:01;;;;;;;21.27;13.00;;;;;;;;;;5096883;28;20039;-73
2022/12/12 10:12:47;;;;;;;21.30;12.93;;;;;;;;;;5082316;28;20051;-73
2022/12/12 10:15:36;;;;;;;22.42;13.00;;;;;;;;;;5096621;28;20438;-73
2022/12/12 10:18:25;;;;;;;23.08;12.40;;;;;;;;;;5097057;28;20024;-74
2022/12/12 10:21:31;;;;;;;23.55;13.18;;;;;;;;;;5097386;28;20020;-74
2022/12/12 10:24:16;;;;;;;20.55;12.90;;;;;;;;;;5098276;28;20172;-73
2022/12/12 10:27:08;;;;;;;22.15;13.30;;;;;;;;;;5099951;28;20034;-74
2022/12/12 10:30:13;;;;;;;20.98;12.60;;;;;;;;;;5085919;28;20017;-73
2022/12/12 10:33:14;;;;;;;20.95;12.02;;;;;;;;;;5101678;28;20035;-74
2022/12/12 10:36:06;;;;;;;18.85;11.57;;;;;;;;;;5098059;28;20020;-74
2022/12/12 10:39:13;;;;;;;17.27;11.25;;;;;;;;;;5097417;28;20070;-72
2022/12/12 10:42:08;;;;;;;17.75;11.32;;;;;;;;;;5096982;28;20020;-73
2022/12/12 10:44:54;;;;;;;19.70;12.35;;;;;;;;;;5096559;28;20055;-73
2022/12/12 10:47:40;;;;;;;18.65;11.65;;;;;;;;;;5095532;28;20044;-73
2022/12/12 10:50:28;;;;;;;18.17;11.77;;;;;;;;;;5095723;28;20027;-73
2022/12/12 10:53:17;;;;;;;21.20;12.30;;;;;;;;;;5095820;28;20024;-74
2022/12/12 10:56:02;;;;;;;17.95;11.93;;;;;;;;;;5096353;28;20028;-73
2022/12/12 10:59:10;;;;;;;20.42;12.23;;;;;;;;;;5096538;28;20044;-72
2022/12/12 11:01:56;;;;;;;18.48;11.93;;;;;;;;;;5096122;28;20386;-73
2022/12/12 11:04:43;;;;;;;19.90;11.70;;;;;;;;;;5096110;28;20027;-73
2022/12/12 11:07:29;;;;;;;19.55;11.32;;;;;;;;;;5081703;28;20020;-73
2022/12/12 11:10:24;;;;;;;18.45;11.73;;;;;;;;;;5096005;28;20050;-73
2022/12/12 11:13:10;;;;;;;20.10;11.93;;;;;;;;;;5096187;28;20031;-74
2022/12/12 11:16:00;;;;;;;20.77;11.77;;;;;;;;;;5081537;28;20098;-75
2022/12/12 11:19:15;;;;;;;17.52;11.70;;;;;;;;;;5098297;28;20099;-75
2022/12/12 11:22:02;;;;;;;21.60;12.50;;;;;;;;;;5088367;28;20097;-74
2022/12/12 11:24:48;;;;;;;19.65;12.25;;;;;;;;;;5080570;28;20407;-74
2022/12/12 11:27:37;;;;;;;16.88;11.82;;;;;;;;;;5081374;28;20028;-74
2022/12/12 11:30:33;;;;;;;21.00;13.55;;;;;;;;;;5080525;28;20449;-74
2022/12/12 11:33:21;;;;;;;23.55;13.63;;;;;;;;;;5096301;28;20038;-71
2022/12/12 11:36:12;;;;;;;20.23;13.15;;;;;;;;;;5094696;28;20020;-73
2022/12/12 11:38:59;;;;;;;28.38;13.90;;;;;;;;;;5094890;28;20020;-73
2022/12/12 11:42:01;;;;;;;21.02;13.93;;;;;;;;;;5095318;28;20287;-75
2022/12/12 11:44:55;;;;;;;22.17;13.27;;;;;;;;;;5095961;28;20028;-73
2022/12/12 11:47:43;;;;;;;21.50;13.85;;;;;;;;;;5095242;28;20032;-73
2022/12/12 11:50:28;;;;;;;26.55;14.80;;;;;;;;;;5095332;28;20103;-73
2022/12/12 11:53:14;;;;;;;23.33;12.95;;;;;;;;;;5079731;28;20038;-74
2022/12/12 11:56:02;;;;;;;17.67;11.35;;;;;;;;;;5094860;28;20012;-74
2022/12/12 11:59:08;;;;;;;22.52;13.52;;;;;;;;;;5094486;28;20441;-73
2022/12/12 12:01:57;;;;;;;23.35;14.18;;;;;;;;;;5077893;28;20044;-73
2022/12/12 12:04:45;;;;;;;21.85;12.85;;;;;;;;;;5075046;28;20031;-73
2022/12/12 12:07:31;;;;;;;21.92;13.98;;;;;;;;;;5075056;28;20028;-73
2022/12/12 12:10:16;;;;;;;23.52;13.63;;;;;;;;;;5072952;28;20027;-73
2022/12/12 12:13:14;;;;;;;21.63;12.55;;;;;;;;;;5075098;28;20103;-74
2022/12/12 12:16:11;;;;;;;21.55;12.48;;;;;;;;;;5075267;28;20025;-73
2022/12/12 12:19:29;;;;;;;22.05;13.50;;;;;;;;;;5074755;28;20047;-74
2022/12/12 12:22:27;;;;;;;23.02;13.45;;;;;;;;;;5020401;28;20363;-73
2022/12/12 12:25:12;;;;;;;21.75;13.57;;;;;;;;;;5074329;28;20013;-72
2022/12/12 12:28:10;;;;;;;21.83;13.90;;;;;;;;;;5074667;28;20024;-73
2022/12/12 12:31:02;;;;;;;21.10;13.13;;;;;;;;;;5059102;28;20032;-74
2022/12/12 12:34:00;;;;;;;20.92;12.55;;;;;;;;;;5059200;28;20024;-73
2022/12/12 12:36:49;;;;;;;19.95;12.60;;;;;;;;;;5060335;28;20051;-73
2022/12/12 12:39:50;;;;;;;18.42;11.32;;;;;;;;;;5074364;28;20013;-74
2022/12/12 12:42:46;;;;;;;16.20;10.55;;;;;;;;;;5073558;28;20031;-74
2022/12/12 12:45:50;;;;;;;18.40;11.40;;;;;;;;;;5059356;28;20031;-73
2022/12/12 12:48:49;;;;;;;15.80;10.07;;;;;;;;;;5061968;28;20020;-74
2022/12/12 12:51:45;;;;;;;17.00;9.88;;;;;;;;;;5073990;28;20447;-74
2022/12/12 12:54:34;;;;;;;14.55;9.48;;;;;;;;;;5072371;28;20362;-74
2022/12/12 12:57:31;;;;;;;16.48;10.07;;;;;;;;;;5072634;28;20099;-73
2022/12/12 13:00:22;;;;;;;16.83;9.20;;;;;;;;;;5073710;28;20077;-73
2022/12/12 13:03:20;;;;;;;15.70;10.30;;;;;;;;;;5066246;28;20440;-73
2022/12/12 13:06:09;;;;;;;21.00;10.27;;;;;;;;;;5073302;28;20035;-74
2022/12/12 13:08:55;;;;;;;20.20;10.55;;;;;;;;;;5059024;28;20029;-73
2022/12/12 13:11:43;;;;;;;13.82;8.75;;;;;;;;;;5057849;28;20048;-72
2022/12/12 13:14:50;;;;;;;16.33;9.70;;;;;;;;;;5060047;28;20032;-73
2022/12/12 13:17:54;;;;;;;15.43;9.32;;;;;;;;;;5073293;28;20013;-73
2022/12/12 13:20:52;;;;;;;14.20;8.65;;;;;;;;;;5073299;28;20024;-72
2022/12/12 13:23:56;;;;;;;18.73;8.98;;;;;;;;;;5073781;28;20134;-73
2022/12/12 13:26:50;;;;;;;13.40;8.55;;;;;;;;;;5073364;28;20458;-74
2022/12/12 13:29:54;;;;;;;18.55;9.02;;;;;;;;;;5073710;28;20090;-75
2022/12/12 13:32:46;;;;;;;19.02;9.20;;;;;;;;;;5072750;28;20392;-76
2022/12/12 13:35:37;;;;;;;17.80;9.38;;;;;;;;;;5073622;28;20028;-74
2022/12/12 13:38:26;;;;;;;14.95;9.63;;;;;;;;;;5073375;28;20021;-74
2022/12/12 13:41:12;;;;;;;13.70;9.15;;;;;;;;;;5073330;28;20358;-75
2022/12/12 13:43:59;;;;;;;16.10;8.93;;;;;;;;;;5075450;28;20052;-76
2022/12/12 13:46:44;;;;;;;17.63;10.20;;;;;;;;;;5073658;28;20454;-75
2022/12/12 13:49:40;;;;;;;13.35;9.25;;;;;;;;;;5072774;28;20109;-75
2022/12/12 13:52:37;;;;;;;14.98;9.15;;;;;;;;;;5073894;28;20021;-75
2022/12/12 13:55:22;;;;;;;17.23;9.50;;;;;;;;;;5074136;28;20040;-75
2022/12/12 13:58:32;;;;;;;14.98;9.48;;;;;;;;;;5072644;28;20041;-75
2022/12/12 14:01:30;;;;;;;15.07;9.77;;;;;;;;;;5080850;28;20065;-75
2022/12/12 14:04:45;;;;;;;15.70;9.73;;;;;;;;;;5093501;28;20031;-74
2022/12/12 14:07:31;;;;;;;15.63;9.50;;;;;;;;;;5071701;28;20028;-76
2022/12/12 14:10:16;;;;;;;14.82;9.90;;;;;;;;;;5094933;28;20030;-75
2022/12/12 14:13:16;;;;;;;16.52;10.13;;;;;;;;;;5094052;28;20103;-76
2022/12/12 14:16:14;;;;;;;16.45;9.90;;;;;;;;;;5093201;28;20397;-76
2022/12/12 14:19:03;;;;;;;16.15;9.73;;;;;;;;;;5078532;28;20016;-75
2022/12/12 14:21:48;;;;;;;15.93;10.07;;;;;;;;;;5093600;28;20024;-76
2022/12/12 14:24:34;;;;;;;16.73;10.50;;;;;;;;;;5096188;28;20053;-75
2022/12/12 14:27:39;;;;;;;21.08;12.73;;;;;;;;;;5096303;28;20020;-75
2022/12/12 14:31:03;;;;;;;18.17;11.00;;;;;;;;;;5096300;28;20038;-75
2022/12/12 14:33:54;;;;;;;16.52;10.32;;;;;;;;;;4995281;28;20037;-75
2022/12/12 14:36:48;;;;;;;17.13;10.63;;;;;;;;;;4996808;28;20507;-74
2022/12/12 14:39:52;;;;;;;17.75;10.35;;;;;;;;;;5091076;28;20461;-75
2022/12/12 14:42:42;;;;;;;16.48;10.88;;;;;;;;;;5082159;28;20394;-75
2022/12/12 14:45:28;;;;;;;17.77;11.05;;;;;;;;;;5085024;28;20111;-75
2022/12/12 14:48:14;;;;;;;17.10;10.73;;;;;;;;;;5100884;28;20342;-74
2022/12/12 14:51:02;;;;;;;19.98;11.38;;;;;;;;;;5081118;28;20028;-74
2022/12/12 14:53:52;;;;;;;21.33;12.15;;;;;;;;;;5095868;28;20107;-74
2022/12/12 14:56:49;;;;;;;18.15;11.48;;;;;;;;;;5080740;28;20054;-74
2022/12/12 14:59:39;;;;;;;17.63;11.23;;;;;;;;;;5096085;28;20095;-74
2022/12/12 15:02:37;;;;;;;18.80;11.13;;;;;;;;;;5078871;28;20045;-74
2022/12/12 15:05:23;;;;;;;24.83;13.95;;;;;;;;;;5075384;28;20116;-74
2022/12/12 15:08:17;;;;;;;20.58;11.75;;;;;;;;;;5076309;28;20335;-75
2022/12/12 15:11:03;;;;;;;18.98;11.75;;;;;;;;;;5074737;28;20374;-74
2022/12/12 15:13:55;;;;;;;21.92;12.38;;;;;;;;;;5075733;28;20013;-75
2022/12/12 15:16:43;;;;;;;20.45;11.48;;;;;;;;;;5075627;28;20093;-74
2022/12/12 15:19:31;;;;;;;20.90;11.95;;;;;;;;;;5081188;28;20021;-74
2022/12/12 15:22:28;;;;;;;26.63;12.48;;;;;;;;;;5060701;28;20017;-76
2022/12/12 15:25:16;;;;;;;19.67;11.85;;;;;;;;;;5075379;28;20031;-76
2022/12/12 15:28:02;;;;;;;19.48;11.70;;;;;;;;;;5075136;28;20024;-76
2022/12/12 15:30:50;;;;;;;21.65;11.93;;;;;;;;;;5075513;28;20028;-75
2022/12/12 15:33:37;;;;;;;22.80;12.77;;;;;;;;;;5075199;28;20348;-74
2022/12/12 15:36:25;;;;;;;20.40;12.75;;;;;;;;;;5074828;28;20040;-75
2022/12/12 15:39:12;;;;;;;25.13;13.57;;;;;;;;;;5074760;28;20496;-75
2022/12/12 15:41:58;;;;;;;21.60;12.45;;;;;;;;;;5074780;28;20334;-75
2022/12/12 15:44:45;;;;;;;23.17;13.55;;;;;;;;;;5074638;28;20029;-74
2022/12/12 15:47:31;;;;;;;25.67;13.43;;;;;;;;;;5075603;28;20033;-75
2022/12/12 15:50:19;;;;;;;25.75;14.23;;;;;;;;;;5074492;28;20043;-74
2022/12/12 15:53:15;;;;;;;24.25;14.02;;;;;;;;;;5073898;28;20040;-74
2022/12/12 15:56:00;;;;;;;22.98;12.70;;;;;;;;;;5060699;28;20020;-76
2022/12/12 15:58:50;;;;;;;23.77;14.50;;;;;;;;;;5060058;28;20020;-74
2022/12/12 16:01:37;;;;;;;26.27;14.68;;;;;;;;;;5083185;28;20052;-75
2022/12/12 16:04:24;;;;;;;22.08;13.82;;;;;;;;;;5094986;28;20024;-75
2022/12/12 16:07:19;;;;;;;37.35;18.25;;;;;;;;;;5095025;28;20035;-75
2022/12/12 16:10:10;;;;;;;28.17;15.07;;;;;;;;;;5081107;28;20028;-75
2022/12/12 16:12:56;;;;;;;24.05;14.05;;;;;;;;;;5094538;28;20055;-75
2022/12/12 16:15:42;;;;;;;27.85;14.52;;;;;;;;;;5094005;28;20020;-73
2022/12/12 16:18:27;;;;;;;24.80;14.07;;;;;;;;;;5079941;28;20023;-76
2022/12/12 16:21:13;;;;;;;25.25;13.95;;;;;;;;;;5079805;28;20053;-74
2022/12/12 16:24:09;;;;;;;22.92;13.45;;;;;;;;;;5093714;28;20106;-75
2022/12/12 16:26:56;;;;;;;23.23;12.70;;;;;;;;;;5094430;28;20027;-75
2022/12/12 16:29:42;;;;;;;24.10;14.15;;;;;;;;;;5094646;28;20020;-74
2022/12/12 16:32:27;;;;;;;24.17;14.38;;;;;;;;;;5079139;28;20024;-75
2022/12/12 16:35:14;;;;;;;20.90;13.50;;;;;;;;;;5093542;28;20024;-74
2022/12/12 16:38:01;;;;;;;25.92;13.93;;;;;;;;;;5079517;28;20035;-74
2022/12/12 16:40:48;;;;;;;22.38;12.68;;;;;;;;;;5094078;28;20016;-74
2022/12/12 16:43:33;;;;;;;23.92;13.75;;;;;;;;;;5094528;28;20482;-74